Time;durP1;ratioP1;P1;durP2;ratioP2;P2;SDS_P1;SDS_P2;PMS_P1;PMS_P2;Temp;Humidity;BMP_temperature;BMP_pressure;BME280_temperature;BME280_humidity;BME280_pressure;Samples;Min_cycle;Max_cycle;Signal;HPM_P1;HPM_P2
2023/10/18 00:02:01;;;;;;;2.88;1.20;;;;;;;13.57;74.07;100447.53;5053077;28;20282;-81
2023/10/18 00:04:29;;;;;;;2.67;1.13;;;;;;;13.57;73.41;100444.06;5052656;28;20286;-79
2023/10/18 00:06:56;;;;;;;2.20;1.08;;;;;;;13.60;74.15;100441.47;5053037;28;20663;-80
2023/10/18 00:12:16;;;;;;;2.08;1.00;;;;;;;13.17;73.36;100373.38;5010542;28;20200;-81
2023/10/18 00:14:44;;;;;;;2.65;1.15;;;;;;;13.61;72.85;100441.50;5011161;28;20287;-81
2023/10/18 00:17:13;;;;;;;2.13;1.10;;;;;;;13.64;72.53;100440.63;5011557;28;20256;-80
2023/10/18 00:19:40;;;;;;;2.90;1.17;;;;;;;13.49;72.80;100437.91;5011597;28;20307;-77
2023/10/18 00:22:09;;;;;;;3.10;1.20;;;;;;;13.30;73.16;100409.09;5011334;28;20239;-79
2023/10/18 00:24:37;;;;;;;2.25;1.30;;;;;;;13.44;74.08;100434.41;5010907;28;20211;-81
2023/10/18 00:27:04;;;;;;;2.22;1.10;;;;;;;13.37;73.54;100439.56;5011457;28;20232;-81
2023/10/18 00:29:31;;;;;;;2.30;1.08;;;;;;;13.00;76.01;100405.28;5011113;28;20204;-80
2023/10/18 00:31:59;;;;;;;3.25;1.23;;;;;;;13.12;75.46;100442.78;5011206;28;20197;-81
2023/10/18 00:34:28;;;;;;;2.08;1.10;;;;;;;13.03;73.68;100437.41;5010751;28;20759;-81
2023/10/18 00:36:55;;;;;;;2.35;1.10;;;;;;;12.86;74.50;100407.75;5010894;28;20287;-80
2023/10/18 00:39:27;;;;;;;2.75;1.10;;;;;;;13.03;74.74;100433.94;5011013;28;20264;-80
2023/10/18 00:41:54;;;;;;;2.47;1.20;;;;;;;12.90;74.96;100409.53;5011039;28;20196;-80
2023/10/18 00:44:22;;;;;;;1.70;1.00;;;;;;;12.89;76.24;100425.97;4962395;28;20252;-80
2023/10/18 00:46:50;;;;;;;2.80;1.20;;;;;;;12.70;74.77;100398.03;5010917;28;20228;-80
2023/10/18 00:49:16;;;;;;;1.50;0.95;;;;;;;12.77;75.21;100418.91;5052471;28;20584;-77
2023/10/18 00:51:46;;;;;;;1.55;0.90;;;;;;;12.83;75.97;100423.31;5052940;28;20343;-79
2023/10/18 00:54:14;;;;;;;3.00;1.15;;;;;;;12.81;75.85;100423.28;5052475;28;20200;-80
2023/10/18 00:56:41;;;;;;;2.88;1.05;;;;;;;12.82;74.88;100422.44;5052783;28;20245;-80
2023/10/18 00:59:14;;;;;;;1.85;1.00;;;;;;;12.64;75.21;100427.44;5052356;28;20667;-80
2023/10/18 01:01:44;;;;;;;2.13;1.13;;;;;;;12.67;74.55;100426.59;5035030;28;20299;-80
2023/10/18 01:04:12;;;;;;;2.05;1.02;;;;;;;12.48;75.08;100429.84;5052400;28;20202;-80
2023/10/18 01:06:45;;;;;;;2.22;1.73;;;;;;;12.15;75.72;100384.34;5052753;28;20637;-80
2023/10/18 01:09:17;;;;;;;1.90;1.15;;;;;;;12.43;75.69;100406.34;5035056;28;20206;-79
2023/10/18 01:11:46;;;;;;;3.20;1.30;;;;;;;12.49;75.10;100422.03;5052362;28;20599;-79
2023/10/18 01:14:16;;;;;;;2.83;1.25;;;;;;;12.55;75.12;100436.84;5052573;28;20726;-80
2023/10/18 01:16:45;;;;;;;3.05;1.60;;;;;;;12.56;75.98;100434.25;5017576;28;20224;-79
2023/10/18 01:19:16;;;;;;;3.13;1.75;;;;;;;12.57;76.32;100430.81;5052390;28;20227;-79
2023/10/18 01:21:45;;;;;;;3.42;1.27;;;;;;;12.32;76.30;100405.34;5052996;28;20262;-80
2023/10/18 01:24:14;;;;;;;2.92;1.15;;;;;;;12.43;76.81;100448.84;5052824;28;20204;-79
2023/10/18 01:26:43;;;;;;;2.10;1.30;;;;;;;12.54;76.02;100432.50;5017934;28;20191;-80
2023/10/18 01:29:10;;;;;;;2.78;1.33;;;;;;;12.57;75.28;100446.41;5052535;28;20207;-79
2023/10/18 01:31:43;;;;;;;3.53;1.25;;;;;;;12.81;75.67;100462.31;5052523;28;20671;-80
2023/10/18 01:34:10;;;;;;;2.65;1.15;;;;;;;12.89;74.32;100460.69;5052149;28;20645;-80
2023/10/18 01:36:39;;;;;;;2.58;1.20;;;;;;;12.64;74.46;100396.22;5053316;28;20200;-79
2023/10/18 01:39:18;;;;;;;1.77;1.15;;;;;;;13.11;74.67;100455.75;5056034;28;20235;-78
2023/10/18 01:41:47;;;;;;;2.05;1.05;;;;;;;13.13;74.87;100451.44;5057228;28;20282;-79
2023/10/18 01:44:18;;;;;;;1.00;0.90;;;;;;;13.03;76.45;100437.41;5056894;28;20620;-79
2023/10/18 01:46:46;;;;;;;2.22;1.10;;;;;;;13.04;76.30;100446.09;5056292;28;20314;-79
2023/10/18 01:49:16;;;;;;;3.72;1.30;;;;;;;13.03;76.52;100446.94;5056343;28;20218;-81
2023/10/18 01:51:45;;;;;;;2.83;1.10;;;;;;;13.06;75.97;100446.97;5057178;28;20711;-80
2023/10/18 01:54:15;;;;;;;2.42;1.10;;;;;;;13.02;77.60;100446.06;5057468;28;20208;-80
2023/10/18 01:56:46;;;;;;;2.20;1.10;;;;;;;13.00;77.58;100445.19;5055993;28;20667;-80
2023/10/18 01:59:17;;;;;;;1.65;0.95;;;;;;;13.07;76.76;100453.94;5056122;28;20227;-80
2023/10/18 02:01:45;;;;;;;2.15;1.00;;;;;;;12.96;77.73;100453.81;5055829;28;20254;-79
2023/10/18 02:04:23;;;;;;;2.38;1.20;;;;;;;12.79;78.96;100426.75;5056268;28;20207;-80
2023/10/18 02:06:51;;;;;;;2.67;1.20;;;;;;;12.68;80.53;100415.34;5055236;28;20210;-80
2023/10/18 02:09:19;;;;;;;2.20;1.10;;;;;;;12.79;82.02;100443.22;5055213;28;20231;-79
2023/10/18 02:11:46;;;;;;;1.85;1.08;;;;;;;12.69;83.52;100441.38;5054841;28;20203;-79
2023/10/18 02:14:15;;;;;;;1.98;1.00;;;;;;;12.64;85.04;100436.97;5055519;28;20231;-79
2023/10/18 02:16:45;;;;;;;2.33;1.23;;;;;;;12.44;86.33;100423.72;5055585;28;20292;-80
2023/10/18 02:19:14;;;;;;;2.13;1.45;;;;;;;12.38;89.61;100440.09;5055626;28;20687;-80
2023/10/18 02:21:41;;;;;;;2.42;1.23;;;;;;;12.25;93.15;100437.31;5055548;28;20199;-80
2023/10/18 02:24:11;;;;;;;2.75;1.20;;;;;;;12.23;94.58;100439.91;5021125;28;20234;-81
2023/10/18 02:26:44;;;;;;;1.17;0.90;;;;;;;12.10;97.33;100445.75;5055247;28;20210;-81
2023/10/18 02:29:13;;;;;;;2.50;1.10;;;;;;;11.85;96.16;100425.47;5020360;28;20226;-80
2023/10/18 02:31:41;;;;;;;3.75;2.08;;;;;;;11.88;96.10;100430.69;5054859;28;20227;-80
2023/10/18 02:34:09;;;;;;;2.75;1.40;;;;;;;11.87;97.16;100452.34;5055349;28;20195;-80
2023/10/18 02:36:40;;;;;;;2.05;1.05;;;;;;;11.72;97.98;100415.75;5054893;28;20203;-80
2023/10/18 02:39:08;;;;;;;1.92;1.05;;;;;;;11.87;98.58;100449.75;5019661;28;20290;-81
2023/10/18 02:41:38;;;;;;;2.72;1.30;;;;;;;11.74;99.73;100432.22;5054534;28;20239;-80
2023/10/18 02:44:10;;;;;;;3.80;1.20;;;;;;;11.88;100.00;100456.69;5054394;28;20702;-79
2023/10/18 02:46:37;;;;;;;2.83;1.13;;;;;;;11.89;100.00;100453.25;5054718;28;20199;-81
2023/10/18 02:49:08;;;;;;;2.28;1.10;;;;;;;11.93;100.00;100457.63;5054946;28;20199;-81
2023/10/18 02:51:36;;;;;;;1.65;1.30;;;;;;;11.85;100.00;100462.72;5054695;28;20671;-81
2023/10/18 02:54:07;;;;;;;1.08;1.00;;;;;;;11.85;100.00;100456.63;5055119;28;20208;-81
2023/10/18 02:56:37;;;;;;;1.38;1.05;;;;;;;11.81;100.00;100465.22;5021430;28;20203;-81
2023/10/18 02:59:07;;;;;;;1.85;1.08;;;;;;;11.82;100.00;100456.59;5055275;28;20200;-80
2023/10/18 03:01:36;;;;;;;1.27;1.00;;;;;;;11.81;100.00;100460.03;5055295;28;20210;-81
2023/10/18 03:04:08;;;;;;;3.30;1.25;;;;;;;11.82;100.00;100456.59;5054692;28;20195;-81
2023/10/18 03:06:35;;;;;;;2.75;1.15;;;;;;;11.75;100.00;100453.03;5054680;28;20206;-80
2023/10/18 03:09:03;;;;;;;3.30;2.05;;;;;;;11.73;100.00;100453.88;5054565;28;20682;-81
2023/10/18 03:11:31;;;;;;;1.77;1.00;;;;;;;11.69;100.00;100450.31;5053817;28;20281;-80
2023/10/18 03:13:58;;;;;;;2.53;1.10;;;;;;;11.50;100.00;100421.41;5054430;28;20275;-79
2023/10/18 03:16:28;;;;;;;2.15;1.00;;;;;;;11.49;100.00;100432.63;5036109;28;20227;-80
2023/10/18 03:18:59;;;;;;;1.50;0.80;;;;;;;11.60;100.00;100451.84;5054296;28;20282;-80
2023/10/18 03:21:32;;;;;;;1.35;0.95;;;;;;;11.64;100.00;100451.94;5054378;28;20227;-80
2023/10/18 03:24:00;;;;;;;2.17;1.02;;;;;;;11.57;100.00;100454.41;5053969;28;20203;-80
2023/10/18 03:26:35;;;;;;;1.67;0.95;;;;;;;11.53;100.00;100447.41;5054060;28;20200;-79
2023/10/18 03:29:11;;;;;;;1.00;0.95;;;;;;;11.51;100.00;100441.34;5054418;28;20229;-80
2023/10/18 03:31:40;;;;;;;2.58;1.10;;;;;;;11.52;100.00;100451.75;5056486;28;20205;-80
2023/10/18 03:34:14;;;;;;;1.45;1.10;;;;;;;11.27;100.00;100398.50;5056532;28;20282;-80
2023/10/18 03:36:51;;;;;;;2.67;2.45;;;;;;;11.54;100.00;100449.16;5053822;28;20210;-80
2023/10/18 03:39:19;;;;;;;2.03;1.10;;;;;;;11.35;100.00;100448.84;5056695;28;20198;-79
2023/10/18 03:41:50;;;;;;;2.53;1.20;;;;;;;11.37;100.00;100457.56;5057069;28;20198;-79
2023/10/18 03:44:21;;;;;;;2.28;1.20;;;;;;;10.77;100.00;100361.28;5056865;28;20589;-80
2023/10/18 03:46:48;;;;;;;1.83;1.02;;;;;;;11.24;100.00;100454.69;5018547;28;20191;-80
2023/10/18 03:49:27;;;;;;;2.40;1.60;;;;;;;11.32;100.00;100454.00;5053460;28;20199;-80
2023/10/18 03:51:56;;;;;;;2.20;1.02;;;;;;;11.32;100.00;100460.91;5053947;28;20227;-80
2023/10/18 03:54:26;;;;;;;1.98;1.13;;;;;;;11.23;100.00;100461.63;5052721;28;20562;-80
2023/10/18 03:56:53;;;;;;;2.28;1.23;;;;;;;11.18;100.00;100460.66;5052892;28;20202;-82
2023/10/18 03:59:21;;;;;;;2.10;1.15;;;;;;;10.96;100.00;100427.34;5052771;28;20196;-80
2023/10/18 04:04:44;;;;;;;4.88;1.58;;;;;;;11.24;100.00;100463.34;5011276;28;20235;-80
2023/10/18 04:07:19;;;;;;;2.75;1.13;;;;;;;11.18;100.00;100460.66;5011758;28;20208;-80
2023/10/18 04:09:50;;;;;;;1.50;1.00;;;;;;;11.11;100.00;100451.00;5007057;28;20208;-82
2023/10/18 04:12:19;;;;;;;2.38;1.50;;;;;;;11.10;100.00;100451.84;4995305;28;20197;-80
2023/10/18 04:14:56;;;;;;;3.28;1.67;;;;;;;10.99;100.00;100434.34;5011522;28;20301;-80
2023/10/18 04:17:36;;;;;;;1.40;1.00;;;;;;;10.79;100.00;100400.22;5011189;28;20759;-80
2023/10/18 04:20:12;;;;;;;3.67;1.77;;;;;;;10.94;100.00;100452.41;5011432;28;20231;-79
2023/10/18 04:22:40;;;;;;;1.70;1.10;;;;;;;10.92;100.00;100456.69;4978967;28;20714;-81
2023/10/18 04:25:14;;;;;;;2.45;1.38;;;;;;;10.79;100.00;100459.88;5011351;28;20209;-80
2023/10/18 04:27:41;;;;;;;1.02;1.00;;;;;;;10.15;100.00;100354.88;5011827;28;20207;-80
2023/10/18 04:30:12;;;;;;;2.42;1.20;;;;;;;10.66;100.00;100457.91;5011225;28;20216;-80
2023/10/18 04:32:39;;;;;;;1.48;1.00;;;;;;;10.60;100.00;100453.44;5010794;28;20734;-80
2023/10/18 04:35:09;;;;;;;3.13;1.30;;;;;;;10.62;100.00;100458.69;5011010;28;20209;-80
2023/10/18 04:37:36;;;;;;;2.75;1.30;;;;;;;10.50;100.00;100446.31;5010979;28;20787;-80
2023/10/18 04:40:06;;;;;;;3.40;1.30;;;;;;;10.49;100.00;100441.13;5011126;28;20278;-79
2023/10/18 04:42:33;;;;;;;2.67;1.20;;;;;;;10.46;100.00;100452.28;5018793;28;20213;-79
2023/10/18 04:45:16;;;;;;;2.70;1.15;;;;;;;10.54;100.00;100455.03;5052557;28;20671;-81
2023/10/18 04:47:42;;;;;;;2.03;1.10;;;;;;;10.51;100.00;100457.56;5052996;28;20206;-80
2023/10/18 04:50:11;;;;;;;2.72;1.38;;;;;;;10.49;100.00;100464.47;5052510;28;20203;-81
2023/10/18 04:52:43;;;;;;;2.67;1.30;;;;;;;10.54;100.00;100466.28;5052761;28;20195;-81
2023/10/18 04:55:13;;;;;;;2.80;1.30;;;;;;;10.67;100.00;100475.19;5053245;28;20211;-81
2023/10/18 04:57:40;;;;;;;2.25;1.25;;;;;;;10.61;100.00;100478.53;5018543;28;20257;-81
2023/10/18 05:00:24;;;;;;;2.72;1.30;;;;;;;10.73;100.00;100486.59;5051517;28;20771;-77
2023/10/18 05:02:58;;;;;;;1.70;1.20;;;;;;;10.67;100.00;100464.81;5064413;28;20198;-77
2023/10/18 05:05:26;;;;;;;2.58;1.10;;;;;;;10.79;100.00;100478.91;5054650;28;20593;-77
2023/10/18 05:07:53;;;;;;;1.95;1.00;;;;;;;10.85;100.00;100475.56;5064769;28;20714;-78
2023/10/18 05:10:23;;;;;;;2.78;1.38;;;;;;;10.92;100.00;100478.31;5059291;28;20667;-77
2023/10/18 05:12:53;;;;;;;2.88;1.30;;;;;;;10.74;100.00;100466.69;5074317;28;20230;-79
2023/10/18 05:15:28;;;;;;;2.67;1.50;;;;;;;10.86;100.00;100479.91;5075004;28;20210;-75
2023/10/18 05:18:04;;;;;;;2.30;1.00;;;;;;;10.97;100.00;100491.38;5069799;28;20298;-78
2023/10/18 05:20:46;;;;;;;5.82;1.67;;;;;;;11.11;100.00;100495.13;5066927;28;20226;-77
2023/10/18 05:23:19;;;;;;;2.47;1.20;;;;;;;11.21;100.00;100502.22;5060548;28;20201;-73
2023/10/18 05:25:48;;;;;;;3.95;1.33;;;;;;;11.37;100.00;100511.19;5073465;28;20209;-79
2023/10/18 05:28:24;;;;;;;2.05;1.20;;;;;;;11.35;100.00;100513.75;5075486;28;20206;-81
2023/10/18 05:33:57;;;;;;;2.28;1.02;;;;;;;11.45;100.00;100523.44;5063379;28;20214;-81
2023/10/18 05:36:42;;;;;;;3.65;1.30;;;;;;;11.54;97.33;100527.06;5061082;28;20222;-81
2023/10/18 05:39:27;;;;;;;3.17;1.20;;;;;;;11.62;96.70;100535.88;5046280;28;20195;-81
2023/10/18 05:42:03;;;;;;;2.75;1.17;;;;;;;11.75;97.59;100528.38;5061372;28;20661;-80
2023/10/18 05:44:30;;;;;;;1.90;1.02;;;;;;;11.78;98.44;100530.13;5057468;28;20230;-79
2023/10/18 05:46:58;;;;;;;2.05;1.10;;;;;;;11.79;97.26;100508.50;5062482;28;20203;-81
2023/10/18 05:49:25;;;;;;;2.47;1.20;;;;;;;11.93;97.37;100522.59;5062207;28;20238;-79
2023/10/18 05:51:52;;;;;;;3.42;1.42;;;;;;;11.58;97.66;100513.31;5075630;28;20203;-81
2023/10/18 05:54:21;;;;;;;2.83;1.40;;;;;;;11.93;96.51;100544.28;5070944;28;20261;-81
2023/10/18 05:56:50;;;;;;;2.90;1.65;;;;;;;12.12;94.68;100539.38;5065667;28;20199;-80
2023/10/18 05:59:34;;;;;;;3.97;1.73;;;;;;;12.37;93.57;100555.38;5075289;28;20576;-81
2023/10/18 06:02:09;;;;;;;6.95;2.78;;;;;;;12.32;91.43;100497.22;5063531;28;20231;-82
2023/10/18 06:04:38;;;;;;;3.83;1.73;;;;;;;12.63;91.78;100528.84;5077085;28;20194;-82
2023/10/18 06:07:09;;;;;;;3.30;1.27;;;;;;;12.69;89.66;100511.63;5075459;28;20202;-81
2023/10/18 06:09:45;;;;;;;1.60;1.10;;;;;;;12.90;89.21;100544.84;5073797;28;20206;-76
2023/10/18 06:12:15;;;;;;;2.85;1.77;;;;;;;13.10;84.74;100551.22;5059283;28;20203;-76
2023/10/18 06:14:45;;;;;;;6.80;1.75;;;;;;;13.35;82.29;100548.03;5073643;28;20686;-75
2023/10/18 06:17:19;;;;;;;1.90;1.17;;;;;;;13.29;78.61;100553.19;5073310;28;20707;-75
2023/10/18 06:19:47;;;;;;;2.63;1.10;;;;;;;13.46;77.42;100547.28;5073354;28;20206;-74
2023/10/18 06:22:23;;;;;;;3.20;1.75;;;;;;;13.55;76.29;100526.53;5072419;28;20229;-74
2023/10/18 06:24:50;;;;;;;2.53;1.15;;;;;;;13.56;75.63;100544.78;5073265;28;20198;-80
2023/10/18 06:27:18;;;;;;;1.45;1.00;;;;;;;13.87;72.94;100546.84;5074878;28;20213;-79
2023/10/18 06:29:49;;;;;;;1.85;1.00;;;;;;;14.32;72.09;100546.34;5068092;28;20199;-78
2023/10/18 06:32:22;;;;;;;3.25;1.10;;;;;;;14.27;69.35;100498.47;5067945;28;20682;-79
2023/10/18 06:34:55;;;;;;;0.80;0.80;;;;;;;14.67;68.23;100546.59;5068359;28;20207;-79
2023/10/18 06:37:23;;;;;;;2.13;1.30;;;;;;;14.69;66.95;100536.19;5067652;28;20740;-79
2023/10/18 06:39:54;;;;;;;1.85;1.00;;;;;;;14.68;66.76;100534.41;5074014;28;20611;-78
2023/10/18 06:42:26;;;;;;;2.72;1.45;;;;;;;14.87;66.25;100541.50;5073922;28;20250;-79
2023/10/18 06:44:55;;;;;;;3.78;2.28;;;;;;;14.98;65.68;100546.78;5074027;28;20191;-80
2023/10/18 06:47:30;;;;;;;2.72;1.35;;;;;;;14.93;65.24;100532.81;5062334;28;20652;-79
2023/10/18 06:49:59;;;;;;;3.47;1.30;;;;;;;14.80;64.60;100529.28;5067452;28;20195;-79
2023/10/18 06:52:30;;;;;;;3.00;1.38;;;;;;;14.78;64.74;100552.75;5064925;28;20256;-78
2023/10/18 06:54:57;;;;;;;2.47;1.08;;;;;;;14.60;64.13;100546.53;5073597;28;20191;-79
2023/10/18 06:57:27;;;;;;;2.60;1.30;;;;;;;14.66;65.00;100559.66;5073396;28;20248;-77
2023/10/18 06:59:56;;;;;;;2.42;1.10;;;;;;;14.79;64.95;100561.47;5031820;28;20204;-79
2023/10/18 07:02:26;;;;;;;1.63;1.10;;;;;;;14.59;65.61;100539.59;5031354;28;20223;-79
2023/10/18 07:04:56;;;;;;;2.45;1.08;;;;;;;14.49;66.98;100554.31;5030863;28;20207;-79
2023/10/18 07:07:23;;;;;;;2.35;1.27;;;;;;;14.50;66.05;100529.09;5031293;28;20204;-78
2023/10/18 07:09:53;;;;;;;4.03;1.38;;;;;;;14.79;67.42;100544.06;5019986;28;20208;-78
2023/10/18 07:12:26;;;;;;;2.03;0.98;;;;;;;14.90;66.51;100518.00;5028088;28;20235;-78
2023/10/18 07:14:56;;;;;;;2.92;1.33;;;;;;;15.38;62.70;100546.91;5030774;28;20212;-78
2023/10/18 07:17:24;;;;;;;4.68;1.15;;;;;;;15.49;61.12;100543.47;5039509;28;20253;-77
2023/10/18 07:19:55;;;;;;;1.90;1.08;;;;;;;15.51;61.28;100549.59;5072464;28;20198;-78
2023/10/18 07:22:39;;;;;;;2.55;1.15;;;;;;;15.57;60.73;100515.63;5072974;28;20254;-78
2023/10/18 07:25:08;;;;;;;4.43;1.38;;;;;;;15.85;60.32;100538.31;5037269;28;20195;-79
2023/10/18 07:27:36;;;;;;;2.42;1.65;;;;;;;16.07;60.79;100561.00;5049136;28;20207;-79
2023/10/18 07:30:14;;;;;;;2.45;1.15;;;;;;;15.72;62.68;100557.47;5072935;28;20592;-79
2023/10/18 07:32:41;;;;;;;1.77;1.15;;;;;;;15.57;63.57;100552.22;5071761;28;20237;-79
2023/10/18 07:35:11;;;;;;;4.93;1.77;;;;;;;15.12;63.11;100449.31;5071570;28;20214;-79
2023/10/18 07:37:41;;;;;;;3.38;1.27;;;;;;;15.93;61.97;100565.34;5072996;28;20222;-78
2023/10/18 07:40:10;;;;;;;1.70;1.00;;;;;;;16.00;62.29;100550.53;5073100;28;20206;-79
2023/10/18 07:42:42;;;;;;;1.67;1.40;;;;;;;16.09;60.98;100540.94;5072930;28;20714;-79
2023/10/18 07:45:14;;;;;;;2.30;1.20;;;;;;;16.49;60.05;100559.22;5073129;28;20221;-79
2023/10/18 07:47:42;;;;;;;1.80;1.00;;;;;;;16.54;58.77;100560.97;5073441;28;20199;-79
2023/10/18 07:52:53;;;;;;;2.90;1.40;;;;;;;16.37;59.00;100566.22;5072458;28;20214;-78
2023/10/18 07:55:21;;;;;;;3.97;1.60;;;;;;;15.78;61.49;100545.28;5073265;28;20217;-78
2023/10/18 07:57:48;;;;;;;2.47;1.30;;;;;;;15.92;63.10;100571.44;5053965;28;20210;-79
2023/10/18 08:00:26;;;;;;;2.40;1.25;;;;;;;15.67;65.37;100559.22;5072481;28;20208;-79
2023/10/18 08:02:53;;;;;;;2.42;1.77;;;;;;;15.80;65.00;100561.84;5072532;28;20619;-79
2023/10/18 08:05:22;;;;;;;4.03;1.48;;;;;;;15.80;65.20;100566.22;5072473;28;20195;-79
2023/10/18 08:07:51;;;;;;;3.80;1.90;;;;;;;15.80;64.36;100542.69;5072426;28;20202;-78
2023/10/18 08:10:19;;;;;;;14.45;2.05;;;;;;;16.15;63.66;100568.88;5072114;28;20222;-79
2023/10/18 08:12:48;;;;;;;2.45;1.20;;;;;;;16.62;61.65;100571.47;5072271;28;20210;-78
2023/10/18 08:15:17;;;;;;;2.92;1.23;;;;;;;16.86;57.68;100574.03;5071640;28;20198;-74
2023/10/18 08:17:44;;;;;;;1.60;1.00;;;;;;;16.81;65.05;100570.53;5071694;28;20198;-74
2023/10/18 08:20:40;;;;;;;3.53;1.63;;;;;;;16.42;57.50;100560.09;5071527;28;20678;-79
2023/10/18 08:23:18;;;;;;;2.92;1.40;;;;;;;16.45;57.04;100578.44;5072264;28;20232;-81
2023/10/18 08:25:51;;;;;;;2.50;1.30;;;;;;;16.56;56.45;100581.94;5072373;28;20281;-79
2023/10/18 08:28:18;;;;;;;2.92;1.48;;;;;;;16.51;56.01;100576.69;5072508;28;20777;-79
2023/10/18 08:33:27;;;;;;;1.85;1.20;;;;;;;16.99;55.51;100560.00;5072320;28;20281;-80
2023/10/18 08:35:58;;;;;;;3.05;1.35;;;;;;;17.27;54.08;100569.50;5073081;28;20550;-80
2023/10/18 08:38:26;;;;;;;2.80;1.10;;;;;;;16.88;54.43;100574.91;5072668;28;20194;-79
2023/10/18 08:41:11;;;;;;;3.92;1.30;;;;;;;16.80;57.74;100530.38;5072539;28;20205;-74
2023/10/18 08:43:49;;;;;;;13.75;2.03;;;;;;;16.92;55.02;100571.41;5070028;28;20679;-78
2023/10/18 08:46:18;;;;;;;7.75;1.55;;;;;;;16.85;54.07;100539.13;5063754;28;20229;-79
2023/10/18 08:48:50;;;;;;;3.13;1.10;;;;;;;16.61;54.81;100491.19;5077636;28;20593;-80
2023/10/18 08:51:18;;;;;;;3.63;1.17;;;;;;;16.66;55.83;100557.47;5077871;28;20210;-79
2023/10/18 08:53:45;;;;;;;3.22;1.10;;;;;;;16.78;55.04;100542.63;5062367;28;20217;-74
2023/10/18 08:56:13;;;;;;;7.75;1.52;;;;;;;17.09;54.23;100566.09;5078261;28;20225;-82
2023/10/18 08:58:42;;;;;;;3.45;1.17;;;;;;;17.12;53.59;100542.53;5079870;28;20701;-83
2023/10/18 09:01:11;;;;;;;3.75;1.33;;;;;;;17.30;53.69;100537.19;5070941;28;22623;-80
2023/10/18 09:03:38;;;;;;;3.35;1.20;;;;;;;17.52;52.71;100558.91;5070291;28;20218;-79
2023/10/18 09:06:05;;;;;;;2.72;1.02;;;;;;;17.31;53.78;100560.75;5062640;28;20233;-79
2023/10/18 09:08:36;;;;;;;4.90;1.30;;;;;;;17.26;54.08;100565.16;5075746;28;20241;-81
2023/10/18 09:11:09;;;;;;;4.78;1.52;;;;;;;17.43;54.06;100536.25;5043932;28;20671;-80
2023/10/18 09:13:41;;;;;;;3.15;1.20;;;;;;;17.87;52.90;100562.22;5076391;28;20223;-81
2023/10/18 09:16:12;;;;;;;10.95;2.17;;;;;;;17.69;54.20;100572.84;5075720;28;20262;-81
2023/10/18 09:18:40;;;;;;;4.18;1.52;;;;;;;17.25;55.63;100557.31;5076493;28;20300;-81
2023/10/18 09:21:17;;;;;;;4.32;1.20;;;;;;;16.79;57.61;100580.16;5076343;28;20198;-80
2023/10/18 09:23:47;;;;;;;2.38;1.20;;;;;;;17.00;58.49;100569.63;5043816;28;20195;-81
2023/10/18 09:26:26;;;;;;;3.10;1.38;;;;;;;17.12;57.71;100564.31;5075729;28;20278;-80
2023/10/18 09:28:56;;;;;;;3.70;1.23;;;;;;;16.97;59.30;100558.28;5043667;28;20211;-80
2023/10/18 09:31:23;;;;;;;7.78;1.63;;;;;;;16.81;59.06;100562.69;5061832;28;20268;-81
2023/10/18 09:33:52;;;;;;;7.38;1.50;;;;;;;16.88;58.56;100546.09;5076109;28;20205;-79
2023/10/18 09:36:20;;;;;;;5.13;1.33;;;;;;;17.01;58.71;100541.69;5027257;28;20238;-80
2023/10/18 09:38:49;;;;;;;7.05;1.65;;;;;;;16.84;59.32;100547.84;5076051;28;20203;-80
2023/10/18 09:41:16;;;;;;;3.58;1.17;;;;;;;16.81;60.95;100546.97;5075610;28;20207;-81
2023/10/18 09:43:44;;;;;;;3.05;1.48;;;;;;;16.84;60.70;100552.19;5075305;28;20272;-78
2023/10/18 09:46:13;;;;;;;5.72;1.30;;;;;;;16.64;64.22;100536.56;5075009;28;20199;-79
2023/10/18 09:48:42;;;;;;;6.32;1.98;;;;;;;16.63;61.20;100549.63;5062159;28;20234;-78
2023/10/18 09:51:14;;;;;;;2.33;1.23;;;;;;;16.81;61.38;100532.13;5075429;28;20199;-81
2023/10/18 09:53:46;;;;;;;4.68;1.55;;;;;;;16.77;60.20;100535.63;5075143;28;20309;-80
2023/10/18 09:56:14;;;;;;;3.10;1.00;;;;;;;16.74;60.73;100525.19;5075667;28;20210;-81
2023/10/18 09:58:43;;;;;;;4.78;1.58;;;;;;;16.75;58.95;100521.69;5073881;28;20207;-80
2023/10/18 10:01:26;;;;;;;4.30;1.30;;;;;;;16.60;60.63;100510.38;5075208;28;20203;-78
2023/10/18 10:03:56;;;;;;;4.03;1.40;;;;;;;16.35;60.33;100507.78;5074924;28;20199;-79
2023/10/18 10:06:26;;;;;;;4.50;1.20;;;;;;;16.56;60.65;100503.41;5074956;28;20306;-77
2023/10/18 10:08:55;;;;;;;3.88;1.50;;;;;;;16.38;59.22;100514.75;5074930;28;20256;-78
2023/10/18 10:11:29;;;;;;;8.50;1.67;;;;;;;16.37;60.71;100510.41;5076124;28;20203;-79
2023/10/18 10:14:00;;;;;;;3.22;1.10;;;;;;;16.33;61.87;100499.06;5060903;28;20654;-78
2023/10/18 10:16:29;;;;;;;3.60;1.10;;;;;;;16.47;62.74;100508.63;5074785;28;20258;-79
2023/10/18 10:18:57;;;;;;;5.28;1.77;;;;;;;16.52;62.27;100497.28;5056088;28;20203;-80
2023/10/18 10:21:27;;;;;;;10.27;2.17;;;;;;;16.69;62.59;100502.50;5074322;28;20202;-79
2023/10/18 10:24:06;;;;;;;6.85;2.75;;;;;;;16.67;60.62;100496.38;5074780;28;20670;-80
2023/10/18 10:26:35;;;;;;;4.85;1.60;;;;;;;16.38;60.46;100473.75;5074541;28;20205;-80
2023/10/18 10:31:56;;;;;;;4.32;1.23;;;;;;;16.80;60.23;100483.25;5074253;28;20210;-79
2023/10/18 10:34:32;;;;;;;2.58;1.25;;;;;;;16.44;60.20;100430.13;5074392;28;20202;-79
2023/10/18 10:37:09;;;;;;;3.92;1.20;;;;;;;16.74;59.80;100471.94;5008049;28;20201;-79
2023/10/18 10:39:44;;;;;;;3.10;1.10;;;;;;;16.72;59.39;100468.47;5074428;28;20230;-76
2023/10/18 10:42:19;;;;;;;3.47;1.30;;;;;;;16.95;58.31;100461.34;5073910;28;20317;-78
2023/10/18 10:45:06;;;;;;;2.40;1.10;;;;;;;17.10;58.22;100460.41;5074044;28;20234;-79
2023/10/18 10:47:42;;;;;;;3.78;1.25;;;;;;;16.86;58.65;100429.97;5074775;28;20198;-79
2023/10/18 10:50:10;;;;;;;4.15;1.20;;;;;;;17.06;58.06;100454.31;5041789;28;20198;-79
2023/10/18 10:52:44;;;;;;;5.85;2.22;;;;;;;17.03;58.37;100456.06;5039402;28;20199;-79
2023/10/18 10:55:21;;;;;;;2.80;1.38;;;;;;;16.95;58.82;100461.34;5074061;28;20210;-80
2023/10/18 10:57:49;;;;;;;3.63;1.30;;;;;;;16.92;57.28;100469.22;5073501;28;20284;-77
2023/10/18 11:00:36;;;;;;;4.72;1.35;;;;;;;17.04;56.89;100466.56;5072888;28;20202;-76
2023/10/18 11:03:30;;;;;;;2.90;1.20;;;;;;;17.21;56.24;100454.25;5073111;28;20227;-79
2023/10/18 11:05:58;;;;;;;2.80;1.38;;;;;;;17.22;55.94;100455.97;5073255;28;20257;-76
2023/10/18 11:08:29;;;;;;;2.92;1.45;;;;;;;17.34;56.04;100449.78;5072579;28;20226;-76
2023/10/18 11:10:57;;;;;;;4.13;1.25;;;;;;;17.35;56.04;100443.66;5072635;28;20222;-76
2023/10/18 11:13:25;;;;;;;4.72;1.40;;;;;;;17.34;56.38;100448.03;5072511;28;20199;-75
2023/10/18 11:15:52;;;;;;;2.47;1.20;;;;;;;17.41;56.45;100445.38;5053708;28;20241;-75
2023/10/18 11:18:22;;;;;;;3.78;1.20;;;;;;;17.57;55.95;100452.28;5072564;28;20234;-75
2023/10/18 11:20:50;;;;;;;3.13;1.10;;;;;;;17.72;54.72;100447.78;5072189;28;20694;-75
2023/10/18 11:23:18;;;;;;;4.40;1.33;;;;;;;17.45;54.93;100420.84;5072863;28;20233;-76
2023/10/18 11:25:46;;;;;;;2.70;0.98;;;;;;;17.66;55.30;100431.22;5072252;28;20209;-76
2023/10/18 11:28:28;;;;;;;4.63;1.33;;;;;;;17.72;54.40;100441.69;5072300;28;20230;-76
2023/10/18 11:30:56;;;;;;;1.80;0.88;;;;;;;17.76;53.82;100440.78;5072403;28;20250;-75
2023/10/18 11:33:35;;;;;;;2.85;1.05;;;;;;;17.79;53.71;100438.13;5072278;28;20199;-76
2023/10/18 11:36:03;;;;;;;3.17;1.75;;;;;;;17.66;54.95;100424.22;5038485;28;20195;-77
2023/10/18 11:38:34;;;;;;;4.18;1.23;;;;;;;17.65;53.96;100425.13;5072562;28;20198;-75
2023/10/18 11:41:09;;;;;;;2.72;1.20;;;;;;;17.91;54.84;100439.78;5072117;28;20260;-75
2023/10/18 11:43:40;;;;;;;2.13;1.13;;;;;;;17.70;54.11;100438.19;5071815;28;20671;-74
2023/10/18 11:46:08;;;;;;;4.22;1.17;;;;;;;17.69;53.10;100428.59;5071859;28;20210;-75
2023/10/18 11:48:36;;;;;;;2.47;1.00;;;;;;;17.73;53.43;100419.78;5071922;28;20203;-75
2023/10/18 11:51:06;;;;;;;3.10;1.20;;;;;;;17.84;53.34;100423.19;5071862;28;20194;-75
2023/10/18 11:53:35;;;;;;;1.90;1.10;;;;;;;17.72;52.58;100392.72;5071712;28;20209;-75
2023/10/18 11:56:05;;;;;;;3.65;1.27;;;;;;;18.03;52.28;100419.53;5071589;28;20199;-75
2023/10/18 11:58:33;;;;;;;4.53;1.33;;;;;;;18.04;51.80;100402.91;5071819;28;20199;-75